sensor_id;sensor_type;location;lat;lon;timestamp;temperature;humidity
1155;DHT22;566;48.414;9.118;2023-08-17T00:01:46;17.10;61.90
1155;DHT22;566;48.414;9.118;2023-08-17T00:04:13;17.10;62.00
1155;DHT22;566;48.414;9.118;2023-08-17T00:06:38;17.00;62.30
1155;DHT22;566;48.414;9.118;2023-08-17T00:09:04;17.00;61.70
1155;DHT22;566;48.414;9.118;2023-08-17T00:11:30;17.10;61.50
1155;DHT22;566;48.414;9.118;2023-08-17T00:13:55;17.10;62.40
1155;DHT22;566;48.414;9.118;2023-08-17T00:16:21;17.00;63.30
1155;DHT22;566;48.414;9.118;2023-08-17T00:18:47;16.90;62.90
1155;DHT22;566;48.414;9.118;2023-08-17T00:21:13;16.90;62.70
1155;DHT22;566;48.414;9.118;2023-08-17T00:23:39;16.90;61.50
1155;DHT22;566;48.414;9.118;2023-08-17T00:26:04;16.80;62.10
1155;DHT22;566;48.414;9.118;2023-08-17T00:28:30;16.80;61.80
1155;DHT22;566;48.414;9.118;2023-08-17T00:30:55;16.80;61.40
1155;DHT22;566;48.414;9.118;2023-08-17T00:33:21;16.80;60.80
1155;DHT22;566;48.414;9.118;2023-08-17T00:35:46;16.70;61.50
1155;DHT22;566;48.414;9.118;2023-08-17T00:38:12;16.70;61.00
1155;DHT22;566;48.414;9.118;2023-08-17T00:40:38;16.70;60.40
1155;DHT22;566;48.414;9.118;2023-08-17T00:43:07;16.60;60.40
1155;DHT22;566;48.414;9.118;2023-08-17T00:45:32;16.60;60.20
1155;DHT22;566;48.414;9.118;2023-08-17T00:47:58;16.70;61.30
1155;DHT22;566;48.414;9.118;2023-08-17T00:50:25;16.60;60.90
1155;DHT22;566;48.414;9.118;2023-08-17T00:52:52;16.60;61.80
1155;DHT22;566;48.414;9.118;2023-08-17T00:55:19;16.60;62.40
1155;DHT22;566;48.414;9.118;2023-08-17T00:57:45;16.60;62.90
1155;DHT22;566;48.414;9.118;2023-08-17T01:00:12;16.50;63.60
1155;DHT22;566;48.414;9.118;2023-08-17T01:02:41;16.50;62.00
1155;DHT22;566;48.414;9.118;2023-08-17T01:05:08;16.50;62.90
1155;DHT22;566;48.414;9.118;2023-08-17T01:07:34;16.50;62.90
1155;DHT22;566;48.414;9.118;2023-08-17T01:10:00;16.50;62.40
1155;DHT22;566;48.414;9.118;2023-08-17T01:12:42;16.50;62.30
1155;DHT22;566;48.414;9.118;2023-08-17T01:15:22;16.50;62.60
1155;DHT22;566;48.414;9.118;2023-08-17T01:18:21;16.50;63.30
1155;DHT22;566;48.414;9.118;2023-08-17T01:20:49;16.50;63.00
1155;DHT22;566;48.414;9.118;2023-08-17T01:23:14;16.40;62.50
1155;DHT22;566;48.414;9.118;2023-08-17T01:25:40;16.40;62.20
1155;DHT22;566;48.414;9.118;2023-08-17T01:28:06;16.40;61.40
1155;DHT22;566;48.414;9.118;2023-08-17T01:30:55;16.30;62.30
1155;DHT22;566;48.414;9.118;2023-08-17T01:33:35;16.30;60.70
1155;DHT22;566;48.414;9.118;2023-08-17T01:36:11;16.30;61.70
1155;DHT22;566;48.414;9.118;2023-08-17T01:38:38;16.30;61.40
1155;DHT22;566;48.414;9.118;2023-08-17T01:41:06;16.30;60.70
1155;DHT22;566;48.414;9.118;2023-08-17T01:43:39;16.30;59.90
1155;DHT22;566;48.414;9.118;2023-08-17T01:46:07;16.30;58.80
1155;DHT22;566;48.414;9.118;2023-08-17T01:48:33;16.40;59.30
1155;DHT22;566;48.414;9.118;2023-08-17T01:50:59;16.30;59.20
1155;DHT22;566;48.414;9.118;2023-08-17T01:53:25;16.40;59.10
1155;DHT22;566;48.414;9.118;2023-08-17T01:55:50;16.30;59.90
1155;DHT22;566;48.414;9.118;2023-08-17T01:58:16;16.30;60.50
1155;DHT22;566;48.414;9.118;2023-08-17T02:00:41;16.30;59.50
1155;DHT22;566;48.414;9.118;2023-08-17T02:03:07;16.30;59.40
1155;DHT22;566;48.414;9.118;2023-08-17T02:05:33;16.30;59.50
1155;DHT22;566;48.414;9.118;2023-08-17T02:07:58;16.30;58.60
1155;DHT22;566;48.414;9.118;2023-08-17T02:10:24;16.30;58.80
1155;DHT22;566;48.414;9.118;2023-08-17T02:12:49;16.30;58.20
1155;DHT22;566;48.414;9.118;2023-08-17T02:15:16;16.30;58.20
1155;DHT22;566;48.414;9.118;2023-08-17T02:17:41;16.30;58.90
1155;DHT22;566;48.414;9.118;2023-08-17T02:20:07;16.30;59.80
1155;DHT22;566;48.414;9.118;2023-08-17T02:22:34;16.30;60.10
1155;DHT22;566;48.414;9.118;2023-08-17T02:24:59;16.30;59.60
1155;DHT22;566;48.414;9.118;2023-08-17T02:27:25;16.30;60.00
1155;DHT22;566;48.414;9.118;2023-08-17T02:29:50;16.30;60.80
1155;DHT22;566;48.414;9.118;2023-08-17T02:32:16;16.20;60.70
1155;DHT22;566;48.414;9.118;2023-08-17T02:34:41;16.20;60.50
1155;DHT22;566;48.414;9.118;2023-08-17T02:37:07;16.20;60.20
1155;DHT22;566;48.414;9.118;2023-08-17T02:39:33;16.20;60.70
1155;DHT22;566;48.414;9.118;2023-08-17T02:41:58;16.20;59.10
1155;DHT22;566;48.414;9.118;2023-08-17T02:44:24;16.20;59.10
1155;DHT22;566;48.414;9.118;2023-08-17T02:46:49;16.20;59.70
1155;DHT22;566;48.414;9.118;2023-08-17T02:49:15;16.20;59.30
1155;DHT22;566;48.414;9.118;2023-08-17T02:51:40;16.20;59.50
1155;DHT22;566;48.414;9.118;2023-08-17T02:54:06;16.20;59.60
1155;DHT22;566;48.414;9.118;2023-08-17T02:56:35;16.10;59.40
1155;DHT22;566;48.414;9.118;2023-08-17T02:59:03;16.10;59.50
1155;DHT22;566;48.414;9.118;2023-08-17T03:01:29;16.10;59.30
1155;DHT22;566;48.414;9.118;2023-08-17T03:03:55;16.10;59.20
1155;DHT22;566;48.414;9.118;2023-08-17T03:06:21;16.10;59.30
1155;DHT22;566;48.414;9.118;2023-08-17T03:08:46;16.00;59.90
1155;DHT22;566;48.414;9.118;2023-08-17T03:11:12;16.00;58.60
1155;DHT22;566;48.414;9.118;2023-08-17T03:13:37;16.10;58.80
1155;DHT22;566;48.414;9.118;2023-08-17T03:16:03;16.00;58.60
1155;DHT22;566;48.414;9.118;2023-08-17T03:18:29;16.00;59.00
1155;DHT22;566;48.414;9.118;2023-08-17T03:20:54;15.90;58.80
1155;DHT22;566;48.414;9.118;2023-08-17T03:23:20;15.90;58.50
1155;DHT22;566;48.414;9.118;2023-08-17T03:25:45;15.90;59.70
1155;DHT22;566;48.414;9.118;2023-08-17T03:28:12;15.90;60.00
1155;DHT22;566;48.414;9.118;2023-08-17T03:30:40;15.90;60.30
1155;DHT22;566;48.414;9.118;2023-08-17T03:33:05;15.80;60.70
1155;DHT22;566;48.414;9.118;2023-08-17T03:35:31;15.70;60.50
1155;DHT22;566;48.414;9.118;2023-08-17T03:37:57;15.70;59.60
1155;DHT22;566;48.414;9.118;2023-08-17T03:40:22;15.80;59.70
1155;DHT22;566;48.414;9.118;2023-08-17T03:42:48;15.70;60.30
1155;DHT22;566;48.414;9.118;2023-08-17T03:45:13;15.70;60.00
1155;DHT22;566;48.414;9.118;2023-08-17T03:47:39;15.80;59.70
1155;DHT22;566;48.414;9.118;2023-08-17T03:50:05;15.80;59.20
1155;DHT22;566;48.414;9.118;2023-08-17T03:52:30;15.80;59.20
1155;DHT22;566;48.414;9.118;2023-08-17T03:54:56;15.80;58.90
1155;DHT22;566;48.414;9.118;2023-08-17T03:57:21;15.80;59.50
1155;DHT22;566;48.414;9.118;2023-08-17T03:59:47;15.80;59.60
1155;DHT22;566;48.414;9.118;2023-08-17T04:02:12;15.80;60.20
1155;DHT22;566;48.414;9.118;2023-08-17T04:04:38;15.70;60.60
1155;DHT22;566;48.414;9.118;2023-08-17T04:07:04;15.70;61.40
1155;DHT22;566;48.414;9.118;2023-08-17T04:09:29;15.70;61.30
1155;DHT22;566;48.414;9.118;2023-08-17T04:11:55;15.70;61.60
1155;DHT22;566;48.414;9.118;2023-08-17T04:14:22;15.70;62.00
1155;DHT22;566;48.414;9.118;2023-08-17T04:16:48;15.70;62.40
1155;DHT22;566;48.414;9.118;2023-08-17T04:19:13;15.70;62.90
1155;DHT22;566;48.414;9.118;2023-08-17T04:21:39;15.70;62.80
1155;DHT22;566;48.414;9.118;2023-08-17T04:24:05;15.70;62.40
1155;DHT22;566;48.414;9.118;2023-08-17T04:26:31;15.70;62.70
1155;DHT22;566;48.414;9.118;2023-08-17T04:28:56;15.80;62.10
1155;DHT22;566;48.414;9.118;2023-08-17T04:31:22;15.80;61.20
1155;DHT22;566;48.414;9.118;2023-08-17T04:33:48;15.90;60.40
1155;DHT22;566;48.414;9.118;2023-08-17T04:36:14;15.90;60.20
1155;DHT22;566;48.414;9.118;2023-08-17T04:38:39;16.00;60.10
1155;DHT22;566;48.414;9.118;2023-08-17T04:41:05;16.10;59.40
1155;DHT22;566;48.414;9.118;2023-08-17T04:43:30;16.00;60.20
1155;DHT22;566;48.414;9.118;2023-08-17T04:45:56;16.10;59.50
1155;DHT22;566;48.414;9.118;2023-08-17T04:48:22;16.20;60.90
1155;DHT22;566;48.414;9.118;2023-08-17T04:50:48;16.10;62.50
1155;DHT22;566;48.414;9.118;2023-08-17T04:53:14;16.10;60.20
1155;DHT22;566;48.414;9.118;2023-08-17T04:55:39;16.20;60.20
1155;DHT22;566;48.414;9.118;2023-08-17T04:58:05;16.30;61.10
1155;DHT22;566;48.414;9.118;2023-08-17T05:00:30;16.40;61.00
1155;DHT22;566;48.414;9.118;2023-08-17T05:02:56;16.50;60.90
1155;DHT22;566;48.414;9.118;2023-08-17T05:05:22;16.60;62.00
1155;DHT22;566;48.414;9.118;2023-08-17T05:07:48;16.70;63.10
1155;DHT22;566;48.414;9.118;2023-08-17T05:10:14;16.80;64.20
1155;DHT22;566;48.414;9.118;2023-08-17T05:12:40;16.90;64.90
1155;DHT22;566;48.414;9.118;2023-08-17T05:15:06;17.00;66.40
1155;DHT22;566;48.414;9.118;2023-08-17T05:17:32;17.10;65.80
1155;DHT22;566;48.414;9.118;2023-08-17T05:19:57;17.20;66.00
1155;DHT22;566;48.414;9.118;2023-08-17T05:22:23;17.20;67.00
1155;DHT22;566;48.414;9.118;2023-08-17T05:24:49;17.30;68.10
1155;DHT22;566;48.414;9.118;2023-08-17T05:27:14;17.60;69.90
1155;DHT22;566;48.414;9.118;2023-08-17T05:29:40;17.70;73.40
1155;DHT22;566;48.414;9.118;2023-08-17T05:32:06;17.90;75.80
1155;DHT22;566;48.414;9.118;2023-08-17T05:34:31;18.00;80.40
1155;DHT22;566;48.414;9.118;2023-08-17T05:36:57;18.00;79.50
1155;DHT22;566;48.414;9.118;2023-08-17T05:39:23;18.00;80.70
1155;DHT22;566;48.414;9.118;2023-08-17T05:41:48;18.10;81.30
1155;DHT22;566;48.414;9.118;2023-08-17T05:44:14;18.20;81.60
1155;DHT22;566;48.414;9.118;2023-08-17T05:46:43;18.10;83.10
1155;DHT22;566;48.414;9.118;2023-08-17T05:49:09;17.90;79.80
1155;DHT22;566;48.414;9.118;2023-08-17T05:51:34;18.10;78.50
1155;DHT22;566;48.414;9.118;2023-08-17T05:54:00;18.20;77.60
1155;DHT22;566;48.414;9.118;2023-08-17T05:56:25;18.20;76.80
1155;DHT22;566;48.414;9.118;2023-08-17T05:58:51;18.30;78.30
1155;DHT22;566;48.414;9.118;2023-08-17T06:01:17;18.50;79.60
1155;DHT22;566;48.414;9.118;2023-08-17T06:03:46;18.60;83.30
1155;DHT22;566;48.414;9.118;2023-08-17T06:06:11;18.60;82.60
1155;DHT22;566;48.414;9.118;2023-08-17T06:08:37;18.80;83.70
1155;DHT22;566;48.414;9.118;2023-08-17T06:11:02;18.60;83.00
1155;DHT22;566;48.414;9.118;2023-08-17T06:13:28;18.80;85.90
1155;DHT22;566;48.414;9.118;2023-08-17T06:15:54;18.70;85.40
1155;DHT22;566;48.414;9.118;2023-08-17T06:18:21;18.80;86.70
1155;DHT22;566;48.414;9.118;2023-08-17T06:20:49;18.80;86.40
1155;DHT22;566;48.414;9.118;2023-08-17T06:23:19;18.80;83.00
1155;DHT22;566;48.414;9.118;2023-08-17T06:25:44;19.00;85.30
1155;DHT22;566;48.414;9.118;2023-08-17T06:28:10;19.30;85.50
1155;DHT22;566;48.414;9.118;2023-08-17T06:30:35;19.50;92.20
1155;DHT22;566;48.414;9.118;2023-08-17T06:33:01;19.60;88.40
1155;DHT22;566;48.414;9.118;2023-08-17T06:35:26;19.90;91.70
1155;DHT22;566;48.414;9.118;2023-08-17T06:38:14;20.30;94.20
1155;DHT22;566;48.414;9.118;2023-08-17T06:40:40;20.60;95.90
1155;DHT22;566;48.414;9.118;2023-08-17T06:43:05;20.90;97.90
1155;DHT22;566;48.414;9.118;2023-08-17T06:45:32;20.90;98.00
1155;DHT22;566;48.414;9.118;2023-08-17T06:47:58;20.90;98.00
1155;DHT22;566;48.414;9.118;2023-08-17T06:50:24;20.80;98.00
1155;DHT22;566;48.414;9.118;2023-08-17T06:52:50;20.70;98.00
1155;DHT22;566;48.414;9.118;2023-08-17T06:55:15;20.70;98.00
1155;DHT22;566;48.414;9.118;2023-08-17T06:57:42;20.70;98.00
1155;DHT22;566;48.414;9.118;2023-08-17T07:00:08;20.70;97.80
1155;DHT22;566;48.414;9.118;2023-08-17T07:02:34;20.70;97.60
1155;DHT22;566;48.414;9.118;2023-08-17T07:05:00;20.80;98.00
1155;DHT22;566;48.414;9.118;2023-08-17T07:07:25;20.80;98.00
1155;DHT22;566;48.414;9.118;2023-08-17T07:09:51;20.80;98.00
1155;DHT22;566;48.414;9.118;2023-08-17T07:12:17;20.60;97.50
1155;DHT22;566;48.414;9.118;2023-08-17T07:14:42;20.50;97.70
1155;DHT22;566;48.414;9.118;2023-08-17T07:17:08;20.10;96.40
1155;DHT22;566;48.414;9.118;2023-08-17T07:19:33;20.20;95.40
1155;DHT22;566;48.414;9.118;2023-08-17T07:21:59;20.30;96.50
1155;DHT22;566;48.414;9.118;2023-08-17T07:24:24;20.60;97.80
1155;DHT22;566;48.414;9.118;2023-08-17T07:26:50;20.90;98.00
1155;DHT22;566;48.414;9.118;2023-08-17T07:29:15;21.10;98.00
1155;DHT22;566;48.414;9.118;2023-08-17T07:31:41;21.00;98.00
1155;DHT22;566;48.414;9.118;2023-08-17T07:34:07;20.80;98.00
1155;DHT22;566;48.414;9.118;2023-08-17T07:36:33;20.70;98.00
1155;DHT22;566;48.414;9.118;2023-08-17T07:38:59;20.70;97.90
1155;DHT22;566;48.414;9.118;2023-08-17T07:41:25;20.70;97.80
1155;DHT22;566;48.414;9.118;2023-08-17T07:43:51;20.80;97.70
1155;DHT22;566;48.414;9.118;2023-08-17T07:46:17;21.00;97.80
1155;DHT22;566;48.414;9.118;2023-08-17T07:48:42;21.30;98.00
1155;DHT22;566;48.414;9.118;2023-08-17T07:51:08;21.60;98.00
1155;DHT22;566;48.414;9.118;2023-08-17T07:53:34;22.00;98.00
1155;DHT22;566;48.414;9.118;2023-08-17T07:55:59;22.60;98.00
1155;DHT22;566;48.414;9.118;2023-08-17T07:58:25;23.50;98.00
1155;DHT22;566;48.414;9.118;2023-08-17T08:00:50;24.40;96.60
1155;DHT22;566;48.414;9.118;2023-08-17T08:03:16;25.20;94.40
1155;DHT22;566;48.414;9.118;2023-08-17T08:05:41;26.00;91.80
1155;DHT22;566;48.414;9.118;2023-08-17T08:08:07;26.60;90.50
1155;DHT22;566;48.414;9.118;2023-08-17T08:10:33;26.70;89.90
1155;DHT22;566;48.414;9.118;2023-08-17T08:12:58;26.10;90.50
1155;DHT22;566;48.414;9.118;2023-08-17T08:15:24;25.50;91.60
1155;DHT22;566;48.414;9.118;2023-08-17T08:17:49;25.20;93.30
1155;DHT22;566;48.414;9.118;2023-08-17T08:20:15;25.20;93.80
1155;DHT22;566;48.414;9.118;2023-08-17T08:22:40;25.30;94.00
1155;DHT22;566;48.414;9.118;2023-08-17T08:25:09;26.00;91.80
1155;DHT22;566;48.414;9.118;2023-08-17T08:27:35;26.80;90.20
1155;DHT22;566;48.414;9.118;2023-08-17T08:30:01;26.70;88.70
1155;DHT22;566;48.414;9.118;2023-08-17T08:32:26;26.70;89.70
1155;DHT22;566;48.414;9.118;2023-08-17T08:34:52;26.70;88.80
1155;DHT22;566;48.414;9.118;2023-08-17T08:37:17;26.70;89.20
1155;DHT22;566;48.414;9.118;2023-08-17T08:39:50;27.10;88.20
1155;DHT22;566;48.414;9.118;2023-08-17T08:42:17;27.70;87.10
1155;DHT22;566;48.414;9.118;2023-08-17T08:44:42;27.80;86.20
1155;DHT22;566;48.414;9.118;2023-08-17T08:47:09;27.80;86.20
1155;DHT22;566;48.414;9.118;2023-08-17T08:49:38;27.20;87.90
1155;DHT22;566;48.414;9.118;2023-08-17T08:52:07;27.20;87.70
1155;DHT22;566;48.414;9.118;2023-08-17T08:54:35;26.90;88.60
1155;DHT22;566;48.414;9.118;2023-08-17T08:57:08;26.90;88.40
1155;DHT22;566;48.414;9.118;2023-08-17T08:59:35;26.80;88.80
1155;DHT22;566;48.414;9.118;2023-08-17T09:02:03;26.80;89.40
1155;DHT22;566;48.414;9.118;2023-08-17T09:04:29;27.10;88.60
1155;DHT22;566;48.414;9.118;2023-08-17T09:06:55;27.40;88.20
1155;DHT22;566;48.414;9.118;2023-08-17T09:09:25;27.40;87.40
1155;DHT22;566;48.414;9.118;2023-08-17T09:11:51;27.20;87.80
1155;DHT22;566;48.414;9.118;2023-08-17T09:14:16;27.20;87.50
1155;DHT22;566;48.414;9.118;2023-08-17T09:16:42;27.50;87.30
1155;DHT22;566;48.414;9.118;2023-08-17T09:19:07;28.10;86.90
1155;DHT22;566;48.414;9.118;2023-08-17T09:21:33;27.70;86.60
1155;DHT22;566;48.414;9.118;2023-08-17T09:23:58;27.50;87.80
1155;DHT22;566;48.414;9.118;2023-08-17T09:26:24;27.30;89.00
1155;DHT22;566;48.414;9.118;2023-08-17T09:28:53;27.80;87.80
1155;DHT22;566;48.414;9.118;2023-08-17T09:31:24;28.90;84.30
1155;DHT22;566;48.414;9.118;2023-08-17T09:33:51;29.70;81.80
1155;DHT22;566;48.414;9.118;2023-08-17T09:36:23;30.20;80.60
1155;DHT22;566;48.414;9.118;2023-08-17T09:38:50;30.10;80.90
1155;DHT22;566;48.414;9.118;2023-08-17T09:41:17;30.30;80.90
1155;DHT22;566;48.414;9.118;2023-08-17T09:43:42;30.90;79.60
1155;DHT22;566;48.414;9.118;2023-08-17T09:46:09;31.00;78.20
1155;DHT22;566;48.414;9.118;2023-08-17T09:48:35;30.30;80.10
1155;DHT22;566;48.414;9.118;2023-08-17T09:51:01;29.80;81.50
1155;DHT22;566;48.414;9.118;2023-08-17T09:53:27;29.40;82.60
1155;DHT22;566;48.414;9.118;2023-08-17T09:55:53;29.40;83.20
1155;DHT22;566;48.414;9.118;2023-08-17T09:58:19;29.70;82.20
1155;DHT22;566;48.414;9.118;2023-08-17T10:00:49;30.90;81.80
1155;DHT22;566;48.414;9.118;2023-08-17T10:03:16;32.10;79.50
1155;DHT22;566;48.414;9.118;2023-08-17T10:05:43;32.50;77.10
1155;DHT22;566;48.414;9.118;2023-08-17T10:08:11;32.50;77.30
1155;DHT22;566;48.414;9.118;2023-08-17T10:10:46;32.30;76.90
1155;DHT22;566;48.414;9.118;2023-08-17T10:16:09;32.10;77.30
1155;DHT22;566;48.414;9.118;2023-08-17T10:18:47;31.20;79.00
1155;DHT22;566;48.414;9.118;2023-08-17T10:21:26;31.30;80.20
1155;DHT22;566;48.414;9.118;2023-08-17T10:23:53;32.40;77.30
1155;DHT22;566;48.414;9.118;2023-08-17T10:26:20;32.70;76.60
1155;DHT22;566;48.414;9.118;2023-08-17T10:28:46;32.60;76.50
1155;DHT22;566;48.414;9.118;2023-08-17T10:31:14;32.10;78.50
1155;DHT22;566;48.414;9.118;2023-08-17T10:33:40;32.00;78.10
1155;DHT22;566;48.414;9.118;2023-08-17T10:36:09;31.60;78.50
1155;DHT22;566;48.414;9.118;2023-08-17T10:38:35;31.30;79.80
1155;DHT22;566;48.414;9.118;2023-08-17T10:41:11;31.50;78.50
1155;DHT22;566;48.414;9.118;2023-08-17T10:43:56;32.10;78.00
1155;DHT22;566;48.414;9.118;2023-08-17T10:46:32;32.50;77.70
1155;DHT22;566;48.414;9.118;2023-08-17T10:49:04;31.90;77.20
1155;DHT22;566;48.414;9.118;2023-08-17T10:51:31;31.90;78.50
1155;DHT22;566;48.414;9.118;2023-08-17T10:54:01;31.80;78.40
1155;DHT22;566;48.414;9.118;2023-08-17T10:56:27;31.70;79.10
1155;DHT22;566;48.414;9.118;2023-08-17T10:58:53;31.30;78.20
1155;DHT22;566;48.414;9.118;2023-08-17T11:01:36;30.80;80.20
1155;DHT22;566;48.414;9.118;2023-08-17T11:04:13;30.40;81.60
1155;DHT22;566;48.414;9.118;2023-08-17T11:06:45;31.10;80.00
1155;DHT22;566;48.414;9.118;2023-08-17T11:09:11;31.90;78.60
1155;DHT22;566;48.414;9.118;2023-08-17T11:11:37;32.50;77.90
1155;DHT22;566;48.414;9.118;2023-08-17T11:14:03;32.70;75.70
1155;DHT22;566;48.414;9.118;2023-08-17T11:16:28;32.50;75.20
1155;DHT22;566;48.414;9.118;2023-08-17T11:18:54;31.30;77.60
1155;DHT22;566;48.414;9.118;2023-08-17T11:21:23;30.60;79.80
1155;DHT22;566;48.414;9.118;2023-08-17T11:23:48;30.00;81.40
1155;DHT22;566;48.414;9.118;2023-08-17T11:26:17;29.20;83.60
1155;DHT22;566;48.414;9.118;2023-08-17T11:28:43;28.50;85.20
1155;DHT22;566;48.414;9.118;2023-08-17T11:31:12;28.60;84.80
1155;DHT22;566;48.414;9.118;2023-08-17T11:33:39;28.70;86.00
1155;DHT22;566;48.414;9.118;2023-08-17T11:36:07;28.80;86.00
1155;DHT22;566;48.414;9.118;2023-08-17T11:38:34;28.10;86.20
1155;DHT22;566;48.414;9.118;2023-08-17T11:41:00;28.10;87.20
1155;DHT22;566;48.414;9.118;2023-08-17T11:43:28;27.90;88.30
1155;DHT22;566;48.414;9.118;2023-08-17T11:45:57;27.80;89.10
1155;DHT22;566;48.414;9.118;2023-08-17T11:48:24;27.80;89.20
1155;DHT22;566;48.414;9.118;2023-08-17T11:50:50;27.90;89.10
1155;DHT22;566;48.414;9.118;2023-08-17T11:53:16;27.80;89.60
1155;DHT22;566;48.414;9.118;2023-08-17T11:55:41;27.80;90.10
1155;DHT22;566;48.414;9.118;2023-08-17T11:58:07;27.70;90.10
1155;DHT22;566;48.414;9.118;2023-08-17T12:00:39;27.50;89.80
1155;DHT22;566;48.414;9.118;2023-08-17T12:03:05;27.30;90.50
1155;DHT22;566;48.414;9.118;2023-08-17T12:05:31;27.20;91.30
1155;DHT22;566;48.414;9.118;2023-08-17T12:07:59;27.20;91.70
1155;DHT22;566;48.414;9.118;2023-08-17T12:10:28;27.20;91.80
1155;DHT22;566;48.414;9.118;2023-08-17T12:12:56;27.20;91.50
1155;DHT22;566;48.414;9.118;2023-08-17T12:15:22;27.00;91.60
1155;DHT22;566;48.414;9.118;2023-08-17T12:17:49;26.70;92.00
1155;DHT22;566;48.414;9.118;2023-08-17T12:20:18;26.60;93.00
1155;DHT22;566;48.414;9.118;2023-08-17T12:22:45;26.50;93.80
1155;DHT22;566;48.414;9.118;2023-08-17T12:25:11;26.50;94.00
1155;DHT22;566;48.414;9.118;2023-08-17T12:27:36;26.50;94.10
1155;DHT22;566;48.414;9.118;2023-08-17T12:30:02;26.30;94.10
1155;DHT22;566;48.414;9.118;2023-08-17T12:32:28;26.00;94.50
1155;DHT22;566;48.414;9.118;2023-08-17T12:34:53;25.90;94.90
1155;DHT22;566;48.414;9.118;2023-08-17T12:37:20;26.00;95.50
1155;DHT22;566;48.414;9.118;2023-08-17T12:39:51;25.90;95.90
1155;DHT22;566;48.414;9.118;2023-08-17T12:42:17;25.90;95.90
1155;DHT22;566;48.414;9.118;2023-08-17T12:44:43;25.70;96.30
1155;DHT22;566;48.414;9.118;2023-08-17T12:47:10;25.50;96.50
1155;DHT22;566;48.414;9.118;2023-08-17T12:49:35;25.40;96.70
1155;DHT22;566;48.414;9.118;2023-08-17T12:52:01;25.30;96.70
1155;DHT22;566;48.414;9.118;2023-08-17T12:54:27;25.20;96.60
1155;DHT22;566;48.414;9.118;2023-08-17T12:56:52;25.00;96.40
1155;DHT22;566;48.414;9.118;2023-08-17T12:59:18;24.80;96.30
1155;DHT22;566;48.414;9.118;2023-08-17T13:01:43;24.70;96.30
1155;DHT22;566;48.414;9.118;2023-08-17T13:04:13;24.50;96.60
1155;DHT22;566;48.414;9.118;2023-08-17T13:06:38;24.20;96.10
1155;DHT22;566;48.414;9.118;2023-08-17T13:09:04;24.00;96.20
1155;DHT22;566;48.414;9.118;2023-08-17T13:11:31;23.90;96.30
1155;DHT22;566;48.414;9.118;2023-08-17T13:13:57;23.70;96.00
1155;DHT22;566;48.414;9.118;2023-08-17T13:16:22;23.70;95.50
1155;DHT22;566;48.414;9.118;2023-08-17T13:18:48;23.70;95.00
1155;DHT22;566;48.414;9.118;2023-08-17T13:21:14;23.70;94.90
1155;DHT22;566;48.414;9.118;2023-08-17T13:23:41;23.50;97.10
1155;DHT22;566;48.414;9.118;2023-08-17T13:26:06;23.40;93.40
1155;DHT22;566;48.414;9.118;2023-08-17T13:28:35;23.10;93.80
1155;DHT22;566;48.414;9.118;2023-08-17T13:31:00;23.00;92.50
1155;DHT22;566;48.414;9.118;2023-08-17T13:33:26;22.90;90.50
1155;DHT22;566;48.414;9.118;2023-08-17T13:35:51;23.00;88.30
1155;DHT22;566;48.414;9.118;2023-08-17T13:38:17;22.90;87.20
1155;DHT22;566;48.414;9.118;2023-08-17T13:40:43;22.80;84.70
1155;DHT22;566;48.414;9.118;2023-08-17T13:43:08;22.50;84.40
1155;DHT22;566;48.414;9.118;2023-08-17T13:45:39;22.40;81.30
1155;DHT22;566;48.414;9.118;2023-08-17T13:48:06;22.40;82.00
1155;DHT22;566;48.414;9.118;2023-08-17T13:50:32;22.30;79.40
1155;DHT22;566;48.414;9.118;2023-08-17T13:52:58;22.20;78.80
1155;DHT22;566;48.414;9.118;2023-08-17T13:55:26;22.10;77.50
1155;DHT22;566;48.414;9.118;2023-08-17T13:57:52;22.00;76.60
1155;DHT22;566;48.414;9.118;2023-08-17T14:00:18;22.00;76.00
1155;DHT22;566;48.414;9.118;2023-08-17T14:02:44;21.90;74.30
1155;DHT22;566;48.414;9.118;2023-08-17T14:05:10;22.00;71.70
1155;DHT22;566;48.414;9.118;2023-08-17T14:07:38;22.10;72.10
1155;DHT22;566;48.414;9.118;2023-08-17T14:10:04;22.30;71.30
1155;DHT22;566;48.414;9.118;2023-08-17T14:12:30;22.40;74.70
1155;DHT22;566;48.414;9.118;2023-08-17T14:14:55;22.80;80.60
1155;DHT22;566;48.414;9.118;2023-08-17T14:17:21;23.20;89.50
1155;DHT22;566;48.414;9.118;2023-08-17T14:19:47;23.80;89.70
1155;DHT22;566;48.414;9.118;2023-08-17T14:22:12;24.20;94.60
1155;DHT22;566;48.414;9.118;2023-08-17T14:24:38;24.90;90.90
1155;DHT22;566;48.414;9.118;2023-08-17T14:27:03;26.10;97.70
1155;DHT22;566;48.414;9.118;2023-08-17T14:29:29;27.30;96.40
1155;DHT22;566;48.414;9.118;2023-08-17T14:31:54;28.10;95.90
1155;DHT22;566;48.414;9.118;2023-08-17T14:34:20;28.80;94.60
1155;DHT22;566;48.414;9.118;2023-08-17T14:36:46;29.50;91.40
1155;DHT22;566;48.414;9.118;2023-08-17T14:39:12;30.10;90.00
1155;DHT22;566;48.414;9.118;2023-08-17T14:41:38;30.70;88.70
1155;DHT22;566;48.414;9.118;2023-08-17T14:44:04;31.30;86.10
1155;DHT22;566;48.414;9.118;2023-08-17T14:46:29;31.20;85.00
1155;DHT22;566;48.414;9.118;2023-08-17T14:48:55;31.00;84.90
1155;DHT22;566;48.414;9.118;2023-08-17T14:51:21;30.50;86.80
1155;DHT22;566;48.414;9.118;2023-08-17T14:53:46;31.00;86.60
1155;DHT22;566;48.414;9.118;2023-08-17T14:56:12;31.70;82.90
1155;DHT22;566;48.414;9.118;2023-08-17T14:58:37;32.10;79.90
1155;DHT22;566;48.414;9.118;2023-08-17T15:01:03;32.60;79.60
1155;DHT22;566;48.414;9.118;2023-08-17T15:03:28;33.20;78.20
1155;DHT22;566;48.414;9.118;2023-08-17T15:05:54;33.50;75.00
1155;DHT22;566;48.414;9.118;2023-08-17T15:08:19;34.00;74.70
1155;DHT22;566;48.414;9.118;2023-08-17T15:10:47;34.10;73.60
1155;DHT22;566;48.414;9.118;2023-08-17T15:13:14;34.40;74.50
1155;DHT22;566;48.414;9.118;2023-08-17T15:15:40;34.50;74.10
1155;DHT22;566;48.414;9.118;2023-08-17T15:18:06;34.70;73.40
1155;DHT22;566;48.414;9.118;2023-08-17T15:20:31;34.70;71.50
1155;DHT22;566;48.414;9.118;2023-08-17T15:22:57;34.20;71.80
1155;DHT22;566;48.414;9.118;2023-08-17T15:25:23;33.50;73.20
1155;DHT22;566;48.414;9.118;2023-08-17T15:27:48;33.40;74.60
1155;DHT22;566;48.414;9.118;2023-08-17T15:30:14;33.90;73.70
1155;DHT22;566;48.414;9.118;2023-08-17T15:32:39;34.40;71.90
1155;DHT22;566;48.414;9.118;2023-08-17T15:35:05;34.80;71.20
1155;DHT22;566;48.414;9.118;2023-08-17T15:37:31;34.40;70.00
1155;DHT22;566;48.414;9.118;2023-08-17T15:39:57;34.10;71.10
1155;DHT22;566;48.414;9.118;2023-08-17T15:42:22;34.40;71.50
1155;DHT22;566;48.414;9.118;2023-08-17T15:44:48;34.30;70.70
1155;DHT22;566;48.414;9.118;2023-08-17T15:47:13;34.00;71.40
1155;DHT22;566;48.414;9.118;2023-08-17T15:49:39;33.90;72.90
1155;DHT22;566;48.414;9.118;2023-08-17T15:52:04;33.80;71.80
1155;DHT22;566;48.414;9.118;2023-08-17T15:54:30;33.60;72.80
1155;DHT22;566;48.414;9.118;2023-08-17T15:56:55;33.60;74.20
1155;DHT22;566;48.414;9.118;2023-08-17T15:59:21;33.60;71.90
1155;DHT22;566;48.414;9.118;2023-08-17T16:01:46;33.60;73.50
1155;DHT22;566;48.414;9.118;2023-08-17T16:04:12;33.40;72.60
1155;DHT22;566;48.414;9.118;2023-08-17T16:06:38;32.90;74.10
1155;DHT22;566;48.414;9.118;2023-08-17T16:09:08;32.10;75.00
1155;DHT22;566;48.414;9.118;2023-08-17T16:11:33;30.90;77.00
1155;DHT22;566;48.414;9.118;2023-08-17T16:13:59;30.40;80.60
1155;DHT22;566;48.414;9.118;2023-08-17T16:16:30;30.80;79.10